createdAt,value
2022-11-29T00:01:18.235Z,9.75
2022-11-29T00:03:45.424Z,11.57
2022-11-29T00:06:16.951Z,10.50
2022-11-29T00:08:44.316Z,9.20
2022-11-29T00:11:41.261Z,10.25
2022-11-29T00:14:11.284Z,10.07
2022-11-29T00:16:40.703Z,10.75
2022-11-29T00:19:12.431Z,10.20
2022-11-29T00:21:39.526Z,11.25
2022-11-29T00:24:07.185Z,10.70
2022-11-29T00:26:33.881Z,9.38
2022-11-29T00:29:00.589Z,10.75
2022-11-29T00:31:31.953Z,10.55
2022-11-29T00:34:01.373Z,10.00
2022-11-29T00:36:28.524Z,10.15
2022-11-29T00:38:55.306Z,10.00
2022-11-29T00:41:22.037Z,10.95
2022-11-29T00:43:48.729Z,11.27
2022-11-29T00:46:15.646Z,10.88
2022-11-29T00:48:42.425Z,9.70
2022-11-29T00:51:09.311Z,13.82
2022-11-29T00:53:37.361Z,10.45
2022-11-29T00:56:05.453Z,9.85
2022-11-29T00:58:33.180Z,10.15
2022-11-29T01:00:59.986Z,10.10
2022-11-29T01:03:26.900Z,9.35
2022-11-29T01:05:59.683Z,9.88
2022-11-29T01:08:26.387Z,9.80
2022-11-29T01:11:12.631Z,9.30
2022-11-29T01:13:40.599Z,8.85
2022-11-29T01:16:08.107Z,9.63
2022-11-29T01:18:36.240Z,9.90
2022-11-29T01:21:15.668Z,10.48
2022-11-29T01:23:44.002Z,10.20
2022-11-29T01:26:14.771Z,10.73
2022-11-29T01:28:42.418Z,10.63
2022-11-29T01:31:12.276Z,10.98
2022-11-29T01:33:39.462Z,10.70
2022-11-29T01:36:08.437Z,11.10
2022-11-29T01:38:36.102Z,11.50
2022-11-29T01:41:13.290Z,10.57
2022-11-29T01:44:12.262Z,10.40
2022-11-29T01:46:42.433Z,9.88
2022-11-29T01:49:13.346Z,9.85
2022-11-29T01:51:46.108Z,9.18
2022-11-29T01:54:14.341Z,9.88
2022-11-29T01:56:42.295Z,10.88
2022-11-29T01:59:14.365Z,12.95
2022-11-29T02:01:41.189Z,12.20
2022-11-29T02:04:08.431Z,11.18
2022-11-29T02:06:36.202Z,11.32
2022-11-29T02:09:04.440Z,12.52
2022-11-29T02:12:08.672Z,12.95
2022-11-29T02:14:45.000Z,13.82
2022-11-29T02:17:27.759Z,13.48
2022-11-29T02:20:28.892Z,14.70
2022-11-29T02:23:29.426Z,14.13
2022-11-29T02:26:32.978Z,12.32
2022-11-29T02:29:49.317Z,13.38
2022-11-29T02:32:43.957Z,15.20
2022-11-29T02:35:39.202Z,15.68
2022-11-29T02:38:24.291Z,15.90
2022-11-29T02:41:20.419Z,15.75
2022-11-29T02:43:52.795Z,14.63
2022-11-29T02:47:12.322Z,16.10
2022-11-29T02:50:19.369Z,15.48
2022-11-29T02:53:00.992Z,16.67
2022-11-29T02:55:40.576Z,14.25
2022-11-29T02:58:20.873Z,13.93
2022-11-29T03:01:03.461Z,15.95
2022-11-29T03:03:50.941Z,15.65
2022-11-29T03:06:41.572Z,15.15
2022-11-29T03:09:21.960Z,15.13
2022-11-29T03:12:13.412Z,15.55
2022-11-29T03:14:56.964Z,15.02
2022-11-29T03:17:56.706Z,15.43
2022-11-29T03:20:38.706Z,14.98
2022-11-29T03:23:16.125Z,14.88
2022-11-29T03:26:07.846Z,15.13
2022-11-29T03:28:39.915Z,13.95
2022-11-29T03:31:32.124Z,15.98
2022-11-29T03:34:21.635Z,14.20
2022-11-29T03:37:28.546Z,15.40
2022-11-29T03:40:15.676Z,16.00
2022-11-29T03:43:08.554Z,17.40
2022-11-29T03:45:49.131Z,18.67
2022-11-29T03:48:31.641Z,19.10
2022-11-29T03:51:32.622Z,20.83
2022-11-29T03:54:09.696Z,20.23
2022-11-29T03:56:39.726Z,20.23
2022-11-29T03:59:22.932Z,20.27
2022-11-29T04:02:31.355Z,19.65
2022-11-29T04:05:19.062Z,19.17
2022-11-29T04:08:40.113Z,18.02
2022-11-29T04:11:58.709Z,18.80
2022-11-29T04:14:34.810Z,17.35
2022-11-29T04:17:14.889Z,18.10
2022-11-29T04:19:55.973Z,17.05
2022-11-29T04:23:32.001Z,19.65
2022-11-29T04:26:49.289Z,16.88
2022-11-29T04:30:04.341Z,20.83
2022-11-29T04:33:13.592Z,19.52
2022-11-29T04:36:06.792Z,19.83
2022-11-29T04:39:11.874Z,20.05
2022-11-29T04:42:12.483Z,20.70
2022-11-29T04:45:24.593Z,22.20
2022-11-29T04:48:55.992Z,20.20
2022-11-29T04:51:51.351Z,20.63
2022-11-29T04:54:31.244Z,20.00
2022-11-29T04:57:43.173Z,22.15
2022-11-29T05:00:19.158Z,20.93
2022-11-29T05:03:07.758Z,20.80
2022-11-29T05:05:58.729Z,22.02
2022-11-29T05:09:04.433Z,20.23
2022-11-29T05:12:24.075Z,19.48
2022-11-29T05:15:13.610Z,20.83
2022-11-29T05:18:37.652Z,17.13
2022-11-29T05:21:44.343Z,21.90
2022-11-29T05:24:35.055Z,20.45
2022-11-29T05:27:23.404Z,20.45
2022-11-29T05:30:12.074Z,21.85
2022-11-29T05:33:20.625Z,20.40
2022-11-29T05:36:05.624Z,18.20
2022-11-29T05:39:15.562Z,19.48
2022-11-29T06:03:35.883Z,16.15
2022-11-29T06:06:43.375Z,16.40
2022-11-29T06:09:26.055Z,17.77
2022-11-29T06:12:02.250Z,20.80
2022-11-29T06:15:01.555Z,24.13
2022-11-29T06:18:16.776Z,22.25
2022-11-29T06:21:02.818Z,23.17
2022-11-29T06:24:03.237Z,20.90
2022-11-29T06:27:16.614Z,25.30
2022-11-29T06:30:01.192Z,21.88
2022-11-29T06:32:50.536Z,22.40
2022-11-29T06:35:53.961Z,24.20
2022-11-29T06:38:30.112Z,27.08
2022-11-29T06:41:02.190Z,23.83
2022-11-29T06:43:30.595Z,25.50
2022-11-29T06:46:03.380Z,25.35
2022-11-29T06:48:42.170Z,24.45
2022-11-29T06:51:25.528Z,28.08
2022-11-29T06:54:19.906Z,23.30
2022-11-29T06:56:55.598Z,22.58
2022-11-29T06:59:26.799Z,21.90
2022-11-29T07:02:13.058Z,21.80
2022-11-29T07:05:27.589Z,21.60
2022-11-29T07:07:58.278Z,23.48
2022-11-29T07:10:26.859Z,25.25
2022-11-29T07:12:53.924Z,23.02
2022-11-29T07:15:23.173Z,24.13
2022-11-29T07:18:26.373Z,23.55
2022-11-29T07:21:21.478Z,21.13
2022-11-29T07:24:48.417Z,22.20
2022-11-29T07:27:40.863Z,23.17
2022-11-29T07:33:09.204Z,18.45
2022-11-29T07:36:06.599Z,23.55
2022-11-29T07:38:53.766Z,21.60
2022-11-29T07:41:36.921Z,22.90
2022-11-29T07:44:51.362Z,20.00
2022-11-29T07:47:18.053Z,24.23
2022-11-29T07:49:44.746Z,22.67
2022-11-29T07:52:16.451Z,22.88
2022-11-29T07:54:43.806Z,22.77
2022-11-29T07:57:10.844Z,22.52
2022-11-29T07:59:37.550Z,23.30
2022-11-29T08:02:10.162Z,23.88
2022-11-29T08:04:44.392Z,21.75
2022-11-29T08:07:11.558Z,23.48
2022-11-29T08:09:38.297Z,23.55
2022-11-29T08:12:05.359Z,21.52
2022-11-29T08:14:33.269Z,22.05
2022-11-29T08:16:59.956Z,21.73
2022-11-29T08:19:26.642Z,22.90
2022-11-29T08:21:53.795Z,22.88
2022-11-29T08:24:20.640Z,22.83
2022-11-29T08:26:47.506Z,25.75
2022-11-29T08:29:14.310Z,25.42
2022-11-29T08:31:41.299Z,24.00
2022-11-29T08:34:10.481Z,23.13
2022-11-29T08:36:37.537Z,23.45
2022-11-29T08:39:09.147Z,25.60
2022-11-29T08:44:05.532Z,18.83
2022-11-29T08:46:58.115Z,24.38
2022-11-29T08:49:25.013Z,21.05
2022-11-29T08:52:13.184Z,23.08
2022-11-29T08:54:40.029Z,23.25
2022-11-29T08:57:38.032Z,23.13
2022-11-29T08:59:53.413Z,23.95
2022-11-29T09:02:20.184Z,23.20
2022-11-29T09:04:47.030Z,25.02
2022-11-29T09:07:13.839Z,23.60
2022-11-29T09:09:40.537Z,21.50
2022-11-29T09:12:08.562Z,21.10
2022-11-29T09:14:35.281Z,18.77
2022-11-29T09:17:01.988Z,22.30
2022-11-29T09:19:28.996Z,22.33
2022-11-29T09:21:56.270Z,21.00
2022-11-29T09:24:22.979Z,22.83
2022-11-29T09:26:49.703Z,24.83
2022-11-29T09:29:17.425Z,23.23
2022-11-29T09:31:45.135Z,21.52
2022-11-29T09:34:16.570Z,20.65
2022-11-29T09:36:44.149Z,21.15
2022-11-29T09:39:14.372Z,20.30
2022-11-29T09:42:11.780Z,20.02
2022-11-29T09:44:49.933Z,23.55
2022-11-29T09:47:54.893Z,20.90
2022-11-29T09:50:33.949Z,18.10
2022-11-29T09:53:32.982Z,19.58
2022-11-29T09:56:09.112Z,19.92
2022-11-29T09:58:47.399Z,19.83
2022-11-29T10:01:23.752Z,17.98
2022-11-29T10:03:54.777Z,19.85
2022-11-29T10:06:25.353Z,20.88
2022-11-29T10:09:17.142Z,20.88
2022-11-29T10:12:12.808Z,23.52
2022-11-29T10:15:25.748Z,22.92
2022-11-29T10:18:05.586Z,20.67
2022-11-29T10:20:43.510Z,22.10
2022-11-29T10:23:38.099Z,20.75
2022-11-29T10:26:08.610Z,19.75
2022-11-29T10:28:38.669Z,16.67
2022-11-29T10:31:32.644Z,17.05
2022-11-29T10:34:07.928Z,16.92
2022-11-29T10:36:45.717Z,17.85
2022-11-29T10:39:39.571Z,14.55
2022-11-29T10:42:35.480Z,15.15
2022-11-29T10:45:04.142Z,16.35
2022-11-29T10:47:31.980Z,15.40
2022-11-29T10:49:59.227Z,15.60
2022-11-29T10:52:25.957Z,16.23
2022-11-29T10:54:58.644Z,15.40
2022-11-29T10:57:25.640Z,16.67
2022-11-29T11:00:08.652Z,16.30
2022-11-29T11:02:36.787Z,16.35
2022-11-29T11:05:18.295Z,16.92
2022-11-29T11:07:47.278Z,17.83
2022-11-29T11:10:28.257Z,17.83
2022-11-29T11:13:20.180Z,15.25
2022-11-29T11:15:46.973Z,16.40
2022-11-29T11:18:28.298Z,17.45
2022-11-29T11:21:01.888Z,18.97
2022-11-29T11:23:42.617Z,18.30
2022-11-29T11:26:13.528Z,17.75
2022-11-29T11:28:55.083Z,16.35
2022-11-29T11:31:38.103Z,16.70
2022-11-29T11:34:34.326Z,16.70
2022-11-29T11:37:22.992Z,17.33
2022-11-29T11:39:56.000Z,18.42
2022-11-29T11:42:38.774Z,18.30
2022-11-29T11:45:11.617Z,18.35
2022-11-29T11:47:52.922Z,18.20
2022-11-29T11:50:33.704Z,18.73
2022-11-29T11:53:06.247Z,17.17
2022-11-29T11:55:53.790Z,18.17
2022-11-29T11:58:31.617Z,17.20
2022-11-29T12:01:12.288Z,18.00
2022-11-29T12:04:06.835Z,18.00
2022-11-29T12:07:00.754Z,17.48
2022-11-29T12:09:52.888Z,18.75
2022-11-29T12:12:21.239Z,16.15
2022-11-29T12:15:02.698Z,19.13
2022-11-29T12:17:58.991Z,16.90
2022-11-29T12:21:03.023Z,15.70
2022-11-29T12:23:57.137Z,21.40
2022-11-29T12:26:55.796Z,20.27
2022-11-29T12:29:19.060Z,29.10
2022-11-29T12:32:11.884Z,20.42
2022-11-29T12:34:58.396Z,18.48
2022-11-29T12:37:51.085Z,17.15
2022-11-29T12:40:46.868Z,15.65
2022-11-29T12:43:53.512Z,16.38
2022-11-29T12:46:26.420Z,16.08
2022-11-29T12:49:13.864Z,16.90
2022-11-29T12:52:10.572Z,15.50
2022-11-29T12:55:03.758Z,17.77
2022-11-29T12:57:58.345Z,16.80
2022-11-29T13:00:33.032Z,16.33
2022-11-29T13:03:19.281Z,16.33
2022-11-29T13:06:14.467Z,14.75
2022-11-29T13:09:00.270Z,15.73
2022-11-29T13:11:36.257Z,16.35
2022-11-29T13:14:48.244Z,17.15
2022-11-29T13:17:40.991Z,16.17
2022-11-29T13:20:28.670Z,15.45
2022-11-29T13:23:45.436Z,18.73
2022-11-29T13:26:13.925Z,18.25
2022-11-29T13:28:42.661Z,17.92
2022-11-29T13:31:20.119Z,18.75
2022-11-29T13:34:12.416Z,16.50
2022-11-29T13:37:01.189Z,19.25
2022-11-29T13:39:42.204Z,17.42
2022-11-29T13:42:38.729Z,19.08
2022-11-29T13:45:34.971Z,18.63
2022-11-29T13:48:29.160Z,18.70
2022-11-29T13:50:57.277Z,20.27
2022-11-29T13:53:33.761Z,18.70
2022-11-29T13:56:01.730Z,18.50
2022-11-29T13:58:28.381Z,18.58
2022-11-29T14:01:00.953Z,17.83
2022-11-29T14:03:46.250Z,17.13
2022-11-29T14:06:18.701Z,16.67
2022-11-29T14:12:18.835Z,17.60
2022-11-29T14:15:01.650Z,15.93
2022-11-29T14:17:52.341Z,16.85
2022-11-29T14:20:25.227Z,18.25
2022-11-29T14:23:04.174Z,16.92
2022-11-29T14:25:53.986Z,18.77
2022-11-29T14:28:23.684Z,17.80
2022-11-29T14:31:03.818Z,19.02
2022-11-29T14:34:02.537Z,17.17
2022-11-29T14:36:46.463Z,18.35
2022-11-29T14:39:42.293Z,19.30
2022-11-29T14:42:18.465Z,19.98
2022-11-29T14:44:58.344Z,19.45
2022-11-29T14:47:34.397Z,18.23
2022-11-29T14:50:07.309Z,18.88
2022-11-29T14:52:40.270Z,19.42
2022-11-29T14:55:36.085Z,22.05
2022-11-29T14:58:06.022Z,22.52
2022-11-29T15:00:32.718Z,23.30
2022-11-29T15:03:16.531Z,20.75
2022-11-29T15:05:46.968Z,21.30
2022-11-29T15:08:28.522Z,19.73
2022-11-29T15:11:16.428Z,20.55
2022-11-29T15:13:59.456Z,20.88
2022-11-29T15:16:45.735Z,22.15
2022-11-29T15:19:21.377Z,18.00
2022-11-29T15:22:14.185Z,20.45
2022-11-29T15:24:54.179Z,19.02
2022-11-29T15:27:22.327Z,19.77
2022-11-29T15:29:50.449Z,20.02
2022-11-29T15:32:30.832Z,18.40
2022-11-29T15:34:58.498Z,16.60
2022-11-29T15:37:33.969Z,15.48
2022-11-29T15:40:13.276Z,13.73
2022-11-29T15:42:48.375Z,15.13
2022-11-29T15:45:37.315Z,13.02
2022-11-29T15:48:23.397Z,12.77
2022-11-29T15:51:14.012Z,13.57
2022-11-29T15:53:47.154Z,14.57
2022-11-29T15:56:31.083Z,14.70
2022-11-29T15:59:04.264Z,11.70
2022-11-29T16:01:31.760Z,13.32
2022-11-29T16:03:59.237Z,16.80
2022-11-29T16:06:40.039Z,13.88
2022-11-29T16:09:21.124Z,14.27
2022-11-29T16:11:48.645Z,14.68
2022-11-29T16:14:22.483Z,14.75
2022-11-29T16:16:52.631Z,14.75
2022-11-29T16:19:28.564Z,17.73
2022-11-29T16:22:11.630Z,15.50
2022-11-29T16:24:45.667Z,15.50
2022-11-29T16:27:14.560Z,14.98
2022-11-29T16:29:45.952Z,10.90
2022-11-29T16:32:28.482Z,13.23
2022-11-29T16:34:58.291Z,14.70
2022-11-29T16:37:38.480Z,15.25
2022-11-29T16:40:06.306Z,16.42
2022-11-29T16:42:33.644Z,16.48
2022-11-29T16:45:21.808Z,15.80
2022-11-29T16:47:59.471Z,17.23
2022-11-29T16:50:29.110Z,16.05
2022-11-29T16:52:56.985Z,14.93
2022-11-29T16:55:24.355Z,15.48
2022-11-29T16:57:52.100Z,16.17
2022-11-29T17:00:32.427Z,16.70
2022-11-29T17:02:59.836Z,16.67
2022-11-29T17:05:27.048Z,16.38
2022-11-29T17:07:53.876Z,15.43
2022-11-29T17:10:24.411Z,17.25
2022-11-29T17:12:51.327Z,15.30
2022-11-29T17:15:18.443Z,16.80
2022-11-29T17:17:45.333Z,15.45
2022-11-29T17:20:13.819Z,15.80
2022-11-29T17:22:41.072Z,15.57
2022-11-29T17:25:08.526Z,16.58
2022-11-29T17:27:35.931Z,15.10
2022-11-29T17:30:03.450Z,16.67
2022-11-29T17:32:30.172Z,15.88
2022-11-29T17:34:56.857Z,14.95
2022-11-29T17:37:23.806Z,12.90
2022-11-29T17:39:50.497Z,13.10
2022-11-29T17:42:17.241Z,13.98
2022-11-29T17:44:43.954Z,13.85
2022-11-29T17:47:10.811Z,14.13
2022-11-29T17:49:37.551Z,14.55
2022-11-29T17:52:04.455Z,14.15
2022-11-29T17:54:33.014Z,14.40
2022-11-29T17:57:00.804Z,14.00
2022-11-29T17:59:27.583Z,16.05
2022-11-29T18:01:54.323Z,14.07
2022-11-29T18:04:21.420Z,14.95
2022-11-29T18:06:50.148Z,14.80
2022-11-29T18:09:19.312Z,17.02
2022-11-29T18:11:49.724Z,15.30
2022-11-29T18:14:23.690Z,13.43
2022-11-29T18:16:51.396Z,13.30
2022-11-29T18:19:21.544Z,13.38
2022-11-29T18:21:49.432Z,12.45
2022-11-29T18:24:16.610Z,13.63
2022-11-29T18:26:43.783Z,10.18
2022-11-29T18:29:10.759Z,12.95
2022-11-29T18:31:40.977Z,11.38
2022-11-29T18:34:09.546Z,11.80
2022-11-29T18:36:43.799Z,11.05
2022-11-29T18:39:19.402Z,10.70
2022-11-29T18:41:50.524Z,10.52
2022-11-29T18:44:20.186Z,11.20
2022-11-29T18:46:47.527Z,10.10
2022-11-29T18:49:17.248Z,9.27
2022-11-29T18:51:45.489Z,9.73
2022-11-29T18:54:14.740Z,9.45
2022-11-29T18:56:43.430Z,11.00
2022-11-29T18:59:14.665Z,9.18
2022-11-29T19:01:43.065Z,10.77
2022-11-29T19:04:14.634Z,11.90
2022-11-29T19:06:42.743Z,11.52
2022-11-29T19:09:23.769Z,11.68
2022-11-29T19:11:50.906Z,13.35
2022-11-29T19:14:18.859Z,11.82
2022-11-29T19:16:47.731Z,12.55
2022-11-29T19:19:14.563Z,12.55
2022-11-29T19:21:41.516Z,11.30
2022-11-29T19:24:17.568Z,10.32
2022-11-29T19:26:46.999Z,10.48
2022-11-29T19:29:14.777Z,10.80
2022-11-29T19:31:42.688Z,10.10
2022-11-29T19:34:10.125Z,10.90
2022-11-29T19:36:42.333Z,10.50
2022-11-29T19:39:11.070Z,11.20
2022-11-29T19:41:38.232Z,10.13
2022-11-29T19:44:07.584Z,10.45
2022-11-29T19:46:45.478Z,10.32
2022-11-29T19:49:12.675Z,10.70
2022-11-29T19:51:39.487Z,10.68
2022-11-29T19:54:08.439Z,10.98
2022-11-29T19:56:35.625Z,11.77
2022-11-29T19:59:02.632Z,12.95
2022-11-29T20:01:39.630Z,16.02
2022-11-29T20:04:07.713Z,14.90
2022-11-29T20:06:35.015Z,16.95
2022-11-29T20:09:02.509Z,29.75
2022-11-29T20:11:29.343Z,17.02
2022-11-29T20:13:59.628Z,17.15
2022-11-29T20:16:28.271Z,15.02
2022-11-29T20:18:56.702Z,15.13
2022-11-29T20:21:33.665Z,13.75
2022-11-29T20:24:06.941Z,15.02
2022-11-29T20:26:37.083Z,14.40
2022-11-29T20:29:06.737Z,14.15
2022-11-29T20:31:36.185Z,15.10
2022-11-29T20:34:04.064Z,14.38
2022-11-29T20:36:44.655Z,12.23
2022-11-29T20:39:32.145Z,13.10
2022-11-29T20:42:43.853Z,13.20
2022-11-29T20:45:12.783Z,12.55
2022-11-29T20:47:51.836Z,13.65
2022-11-29T20:50:25.968Z,12.32
2022-11-29T20:52:59.474Z,11.70
2022-11-29T20:55:26.258Z,12.02
2022-11-29T20:57:53.156Z,14.45
2022-11-29T21:00:20.691Z,13.88
2022-11-29T21:02:47.477Z,15.98
2022-11-29T21:05:16.051Z,17.98
2022-11-29T21:07:43.912Z,19.60
2022-11-29T21:10:11.110Z,19.85
2022-11-29T21:12:38.645Z,23.25
2022-11-29T21:15:06.394Z,22.40
2022-11-29T21:17:34.120Z,23.15
2022-11-29T21:20:01.607Z,26.35
2022-11-29T21:22:46.784Z,24.30
2022-11-29T21:25:54.870Z,23.40
2022-11-29T21:28:51.021Z,21.40
2022-11-29T21:31:19.075Z,21.20
2022-11-29T21:33:46.336Z,21.35
2022-11-29T21:36:13.506Z,25.10
2022-11-29T21:38:40.801Z,22.10
2022-11-29T21:41:07.610Z,26.20
2022-11-29T21:44:04.255Z,23.90
2022-11-29T21:46:21.358Z,22.77
2022-11-29T21:48:49.918Z,26.00
2022-11-29T21:51:16.628Z,25.75
2022-11-29T21:53:43.364Z,25.90
2022-11-29T21:56:11.680Z,24.48
2022-11-29T21:58:39.352Z,24.00
2022-11-29T22:01:14.002Z,27.98
2022-11-29T22:03:42.568Z,23.05
2022-11-29T22:06:16.437Z,24.35
2022-11-29T22:08:43.236Z,26.00
2022-11-29T22:11:13.591Z,28.20
2022-11-29T22:14:01.832Z,28.02
2022-11-29T22:16:29.791Z,26.63
2022-11-29T22:18:56.671Z,25.65
2022-11-29T22:21:23.414Z,26.77
2022-11-29T22:23:52.272Z,27.08
2022-11-29T22:26:19.000Z,28.48
2022-11-29T22:28:45.715Z,27.60
2022-11-29T22:31:12.908Z,30.25
2022-11-29T22:33:40.309Z,28.10
2022-11-29T22:36:12.506Z,28.08
2022-11-29T22:41:10.428Z,24.77
2022-11-29T22:43:38.088Z,26.17
2022-11-29T22:46:15.241Z,26.80
2022-11-29T22:48:43.969Z,28.35
2022-11-29T22:51:20.452Z,27.65
2022-11-29T22:53:59.055Z,27.63
2022-11-29T22:56:30.635Z,29.77
2022-11-29T22:58:57.600Z,27.48
2022-11-29T23:01:30.253Z,27.27
2022-11-29T23:03:59.801Z,25.02
2022-11-29T23:06:29.980Z,26.42
2022-11-29T23:09:02.879Z,27.95
2022-11-29T23:11:30.398Z,29.20
2022-11-29T23:13:57.204Z,32.30
2022-11-29T23:16:29.722Z,32.17
2022-11-29T23:18:58.544Z,33.03
2022-11-29T23:21:31.354Z,33.28
2022-11-29T23:24:01.827Z,35.55
2022-11-29T23:26:36.216Z,32.55
2022-11-29T23:29:04.854Z,30.95
2022-11-29T23:31:31.714Z,31.58
2022-11-29T23:33:58.507Z,30.15
2022-11-29T23:36:25.378Z,30.05
2022-11-29T23:38:52.218Z,30.05
2022-11-29T23:41:19.062Z,28.95
2022-11-29T23:43:45.791Z,27.48
2022-11-29T23:46:16.348Z,28.05
2022-11-29T23:48:43.827Z,26.88
2022-11-29T23:51:11.857Z,28.23
2022-11-29T23:53:39.591Z,29.85
2022-11-29T23:56:12.040Z,26.98
2022-11-29T23:58:39.204Z,27.20
